sensor_id;sensor_type;location;lat;lon;timestamp;P1;durP1;ratioP1;P2;durP2;ratioP2
23565;SDS011;22140;48.988;8.544;2023-09-30T00:03:19;7.33;;;1.70;;
23565;SDS011;22140;48.988;8.544;2023-09-30T00:08:21;8.32;;;1.92;;
23565;SDS011;22140;48.988;8.544;2023-09-30T00:13:22;6.03;;;1.67;;
23565;SDS011;22140;48.988;8.544;2023-09-30T00:18:25;7.17;;;2.10;;
23565;SDS011;22140;48.988;8.544;2023-09-30T00:23:26;6.43;;;1.77;;
23565;SDS011;22140;48.988;8.544;2023-09-30T00:28:27;6.55;;;2.13;;
23565;SDS011;22140;48.988;8.544;2023-09-30T00:33:29;8.32;;;2.10;;
23565;SDS011;22140;48.988;8.544;2023-09-30T00:38:30;7.53;;;2.03;;
23565;SDS011;22140;48.988;8.544;2023-09-30T00:43:32;6.63;;;2.00;;
23565;SDS011;22140;48.988;8.544;2023-09-30T00:48:34;6.35;;;1.95;;
23565;SDS011;22140;48.988;8.544;2023-09-30T00:53:35;8.33;;;2.03;;
23565;SDS011;22140;48.988;8.544;2023-09-30T00:58:37;7.22;;;1.80;;
23565;SDS011;22140;48.988;8.544;2023-09-30T01:03:39;7.38;;;1.95;;
23565;SDS011;22140;48.988;8.544;2023-09-30T01:08:41;7.20;;;2.00;;
23565;SDS011;22140;48.988;8.544;2023-09-30T01:13:42;6.00;;;1.73;;
23565;SDS011;22140;48.988;8.544;2023-09-30T01:18:45;5.90;;;1.70;;
23565;SDS011;22140;48.988;8.544;2023-09-30T01:23:47;7.18;;;2.10;;
23565;SDS011;22140;48.988;8.544;2023-09-30T01:28:48;7.53;;;2.07;;
23565;SDS011;22140;48.988;8.544;2023-09-30T01:33:50;8.50;;;2.20;;
23565;SDS011;22140;48.988;8.544;2023-09-30T01:38:55;8.77;;;2.13;;
23565;SDS011;22140;48.988;8.544;2023-09-30T01:43:57;6.60;;;1.83;;
23565;SDS011;22140;48.988;8.544;2023-09-30T01:48:59;9.80;;;1.75;;
23565;SDS011;22140;48.988;8.544;2023-09-30T01:54:00;14.23;;;2.53;;
23565;SDS011;22140;48.988;8.544;2023-09-30T01:59:02;7.00;;;1.90;;
23565;SDS011;22140;48.988;8.544;2023-09-30T02:04:03;7.57;;;2.00;;
23565;SDS011;22140;48.988;8.544;2023-09-30T02:09:06;7.05;;;2.25;;
23565;SDS011;22140;48.988;8.544;2023-09-30T02:14:10;6.03;;;2.10;;
23565;SDS011;22140;48.988;8.544;2023-09-30T02:19:12;8.60;;;2.50;;
23565;SDS011;22140;48.988;8.544;2023-09-30T02:24:14;8.00;;;2.20;;
23565;SDS011;22140;48.988;8.544;2023-09-30T02:29:16;10.63;;;2.70;;
23565;SDS011;22140;48.988;8.544;2023-09-30T02:34:18;5.97;;;2.23;;
23565;SDS011;22140;48.988;8.544;2023-09-30T02:39:19;7.30;;;1.98;;
23565;SDS011;22140;48.988;8.544;2023-09-30T02:44:21;7.88;;;2.20;;
23565;SDS011;22140;48.988;8.544;2023-09-30T02:49:22;7.33;;;2.40;;
23565;SDS011;22140;48.988;8.544;2023-09-30T02:54:23;7.78;;;2.03;;
23565;SDS011;22140;48.988;8.544;2023-09-30T02:59:24;8.02;;;2.17;;
23565;SDS011;22140;48.988;8.544;2023-09-30T03:04:26;7.63;;;2.07;;
23565;SDS011;22140;48.988;8.544;2023-09-30T03:09:29;7.43;;;2.10;;
23565;SDS011;22140;48.988;8.544;2023-09-30T03:14:31;6.25;;;2.00;;
23565;SDS011;22140;48.988;8.544;2023-09-30T03:19:32;6.77;;;2.00;;
23565;SDS011;22140;48.988;8.544;2023-09-30T03:24:34;7.70;;;2.10;;
23565;SDS011;22140;48.988;8.544;2023-09-30T03:29:36;8.38;;;2.33;;
23565;SDS011;22140;48.988;8.544;2023-09-30T03:34:39;6.53;;;2.23;;
23565;SDS011;22140;48.988;8.544;2023-09-30T03:39:45;9.35;;;2.35;;
23565;SDS011;22140;48.988;8.544;2023-09-30T03:44:50;7.88;;;2.20;;
23565;SDS011;22140;48.988;8.544;2023-09-30T03:49:52;7.90;;;2.10;;
23565;SDS011;22140;48.988;8.544;2023-09-30T03:54:55;8.90;;;2.30;;
23565;SDS011;22140;48.988;8.544;2023-09-30T03:59:56;7.88;;;2.35;;
23565;SDS011;22140;48.988;8.544;2023-09-30T04:04:59;9.10;;;2.80;;
23565;SDS011;22140;48.988;8.544;2023-09-30T04:10:01;8.00;;;2.07;;
23565;SDS011;22140;48.988;8.544;2023-09-30T04:15:02;8.88;;;2.28;;
23565;SDS011;22140;48.988;8.544;2023-09-30T04:20:08;6.88;;;2.10;;
23565;SDS011;22140;48.988;8.544;2023-09-30T04:25:11;7.90;;;2.20;;
23565;SDS011;22140;48.988;8.544;2023-09-30T04:30:13;8.02;;;2.30;;
23565;SDS011;22140;48.988;8.544;2023-09-30T04:35:16;7.30;;;1.90;;
23565;SDS011;22140;48.988;8.544;2023-09-30T04:40:18;8.30;;;2.10;;
23565;SDS011;22140;48.988;8.544;2023-09-30T04:45:23;8.35;;;2.22;;
23565;SDS011;22140;48.988;8.544;2023-09-30T04:50:26;9.27;;;2.50;;
23565;SDS011;22140;48.988;8.544;2023-09-30T04:55:27;10.17;;;2.50;;
23565;SDS011;22140;48.988;8.544;2023-09-30T05:00:29;8.82;;;2.25;;
23565;SDS011;22140;48.988;8.544;2023-09-30T05:05:31;9.63;;;2.60;;
23565;SDS011;22140;48.988;8.544;2023-09-30T05:10:33;8.97;;;2.40;;
23565;SDS011;22140;48.988;8.544;2023-09-30T05:15:34;8.80;;;3.20;;
23565;SDS011;22140;48.988;8.544;2023-09-30T05:20:36;7.70;;;3.00;;
23565;SDS011;22140;48.988;8.544;2023-09-30T05:25:39;6.97;;;2.60;;
23565;SDS011;22140;48.988;8.544;2023-09-30T05:30:41;9.02;;;3.95;;
23565;SDS011;22140;48.988;8.544;2023-09-30T05:35:42;8.57;;;2.60;;
23565;SDS011;22140;48.988;8.544;2023-09-30T05:40:44;7.67;;;2.43;;
23565;SDS011;22140;48.988;8.544;2023-09-30T05:45:45;10.93;;;3.10;;
23565;SDS011;22140;48.988;8.544;2023-09-30T05:50:51;7.77;;;2.57;;
23565;SDS011;22140;48.988;8.544;2023-09-30T05:55:52;8.70;;;2.73;;
23565;SDS011;22140;48.988;8.544;2023-09-30T06:00:54;8.65;;;2.55;;
23565;SDS011;22140;48.988;8.544;2023-09-30T06:05:55;9.93;;;3.00;;
23565;SDS011;22140;48.988;8.544;2023-09-30T06:10:57;6.40;;;2.40;;
23565;SDS011;22140;48.988;8.544;2023-09-30T06:15:59;9.60;;;2.72;;
23565;SDS011;22140;48.988;8.544;2023-09-30T06:21:01;12.57;;;4.20;;
23565;SDS011;22140;48.988;8.544;2023-09-30T06:26:05;8.80;;;2.63;;
23565;SDS011;22140;48.988;8.544;2023-09-30T06:31:07;13.63;;;2.92;;
23565;SDS011;22140;48.988;8.544;2023-09-30T06:36:09;12.00;;;2.90;;
23565;SDS011;22140;48.988;8.544;2023-09-30T06:41:18;17.80;;;2.93;;
23565;SDS011;22140;48.988;8.544;2023-09-30T06:46:19;8.48;;;2.85;;
23565;SDS011;22140;48.988;8.544;2023-09-30T06:51:20;9.70;;;2.83;;
23565;SDS011;22140;48.988;8.544;2023-09-30T06:56:22;10.00;;;3.03;;
23565;SDS011;22140;48.988;8.544;2023-09-30T07:01:23;11.02;;;3.10;;
23565;SDS011;22140;48.988;8.544;2023-09-30T07:06:24;13.97;;;3.10;;
23565;SDS011;22140;48.988;8.544;2023-09-30T07:11:27;9.53;;;3.07;;
23565;SDS011;22140;48.988;8.544;2023-09-30T07:16:29;9.63;;;3.03;;
23565;SDS011;22140;48.988;8.544;2023-09-30T07:21:30;9.47;;;3.10;;
23565;SDS011;22140;48.988;8.544;2023-09-30T07:26:32;8.10;;;2.83;;
23565;SDS011;22140;48.988;8.544;2023-09-30T07:31:36;9.35;;;2.97;;
23565;SDS011;22140;48.988;8.544;2023-09-30T07:36:38;12.65;;;3.55;;
23565;SDS011;22140;48.988;8.544;2023-09-30T07:41:39;11.50;;;3.97;;
23565;SDS011;22140;48.988;8.544;2023-09-30T07:46:40;10.15;;;3.83;;
23565;SDS011;22140;48.988;8.544;2023-09-30T07:51:42;10.82;;;4.00;;
23565;SDS011;22140;48.988;8.544;2023-09-30T07:56:43;20.43;;;4.87;;
23565;SDS011;22140;48.988;8.544;2023-09-30T08:01:45;13.52;;;3.97;;
23565;SDS011;22140;48.988;8.544;2023-09-30T08:06:48;9.10;;;3.50;;
23565;SDS011;22140;48.988;8.544;2023-09-30T08:11:50;11.27;;;4.00;;
23565;SDS011;22140;48.988;8.544;2023-09-30T08:16:51;10.20;;;4.50;;
23565;SDS011;22140;48.988;8.544;2023-09-30T08:21:53;14.70;;;4.30;;
23565;SDS011;22140;48.988;8.544;2023-09-30T08:26:54;16.05;;;4.82;;
23565;SDS011;22140;48.988;8.544;2023-09-30T08:31:57;14.53;;;6.13;;
23565;SDS011;22140;48.988;8.544;2023-09-30T08:36:59;12.82;;;5.72;;
23565;SDS011;22140;48.988;8.544;2023-09-30T08:42:00;14.32;;;5.50;;
23565;SDS011;22140;48.988;8.544;2023-09-30T08:47:03;12.43;;;5.30;;
23565;SDS011;22140;48.988;8.544;2023-09-30T08:52:05;13.85;;;4.90;;
23565;SDS011;22140;48.988;8.544;2023-09-30T08:57:08;12.30;;;5.25;;
23565;SDS011;22140;48.988;8.544;2023-09-30T09:02:10;10.30;;;4.40;;
23565;SDS011;22140;48.988;8.544;2023-09-30T09:07:12;13.00;;;4.50;;
23565;SDS011;22140;48.988;8.544;2023-09-30T09:12:19;11.30;;;4.38;;
23565;SDS011;22140;48.988;8.544;2023-09-30T09:17:21;14.38;;;4.68;;
23565;SDS011;22140;48.988;8.544;2023-09-30T09:22:23;11.23;;;4.30;;
23565;SDS011;22140;48.988;8.544;2023-09-30T09:27:25;13.55;;;4.28;;
23565;SDS011;22140;48.988;8.544;2023-09-30T09:32:26;12.00;;;4.10;;
23565;SDS011;22140;48.988;8.544;2023-09-30T09:37:28;11.23;;;3.60;;
23565;SDS011;22140;48.988;8.544;2023-09-30T09:42:33;11.10;;;4.07;;
23565;SDS011;22140;48.988;8.544;2023-09-30T09:47:38;12.82;;;4.20;;
23565;SDS011;22140;48.988;8.544;2023-09-30T09:52:39;13.67;;;3.80;;
23565;SDS011;22140;48.988;8.544;2023-09-30T09:57:42;11.57;;;3.87;;
23565;SDS011;22140;48.988;8.544;2023-09-30T10:02:44;10.55;;;3.75;;
23565;SDS011;22140;48.988;8.544;2023-09-30T10:07:50;14.85;;;3.60;;
23565;SDS011;22140;48.988;8.544;2023-09-30T10:12:52;10.77;;;3.93;;
23565;SDS011;22140;48.988;8.544;2023-09-30T10:18:01;10.93;;;3.22;;
23565;SDS011;22140;48.988;8.544;2023-09-30T10:23:25;10.05;;;3.47;;
23565;SDS011;22140;48.988;8.544;2023-09-30T10:33:34;11.63;;;3.30;;
23565;SDS011;22140;48.988;8.544;2023-09-30T10:38:36;10.02;;;3.20;;
23565;SDS011;22140;48.988;8.544;2023-09-30T10:43:39;13.33;;;3.50;;
23565;SDS011;22140;48.988;8.544;2023-09-30T10:48:41;9.53;;;3.30;;
23565;SDS011;22140;48.988;8.544;2023-09-30T10:53:43;11.43;;;3.25;;
23565;SDS011;22140;48.988;8.544;2023-09-30T10:58:46;11.55;;;3.63;;
23565;SDS011;22140;48.988;8.544;2023-09-30T11:03:48;10.03;;;3.40;;
23565;SDS011;22140;48.988;8.544;2023-09-30T11:08:55;11.13;;;4.00;;
23565;SDS011;22140;48.988;8.544;2023-09-30T11:13:56;11.98;;;4.20;;
23565;SDS011;22140;48.988;8.544;2023-09-30T11:18:58;12.47;;;4.00;;
23565;SDS011;22140;48.988;8.544;2023-09-30T11:24:00;10.68;;;3.67;;
23565;SDS011;22140;48.988;8.544;2023-09-30T11:29:20;9.98;;;3.60;;
23565;SDS011;22140;48.988;8.544;2023-09-30T11:34:30;8.80;;;3.33;;
23565;SDS011;22140;48.988;8.544;2023-09-30T11:39:33;9.83;;;3.47;;
23565;SDS011;22140;48.988;8.544;2023-09-30T11:44:36;14.18;;;4.00;;
23565;SDS011;22140;48.988;8.544;2023-09-30T11:49:45;11.30;;;3.67;;
23565;SDS011;22140;48.988;8.544;2023-09-30T11:54:55;11.03;;;3.70;;
23565;SDS011;22140;48.988;8.544;2023-09-30T11:59:57;19.17;;;8.50;;
23565;SDS011;22140;48.988;8.544;2023-09-30T12:04:59;10.32;;;3.60;;
23565;SDS011;22140;48.988;8.544;2023-09-30T12:10:00;10.27;;;3.47;;
23565;SDS011;22140;48.988;8.544;2023-09-30T12:15:01;9.73;;;3.38;;
23565;SDS011;22140;48.988;8.544;2023-09-30T12:20:04;9.75;;;3.50;;
23565;SDS011;22140;48.988;8.544;2023-09-30T12:25:06;13.13;;;3.50;;
23565;SDS011;22140;48.988;8.544;2023-09-30T12:30:09;9.40;;;3.33;;
23565;SDS011;22140;48.988;8.544;2023-09-30T12:35:10;11.20;;;3.55;;
23565;SDS011;22140;48.988;8.544;2023-09-30T12:40:13;9.95;;;3.35;;
23565;SDS011;22140;48.988;8.544;2023-09-30T12:45:17;11.03;;;3.50;;
23565;SDS011;22140;48.988;8.544;2023-09-30T12:50:19;10.13;;;3.22;;
23565;SDS011;22140;48.988;8.544;2023-09-30T12:55:20;12.50;;;3.88;;
23565;SDS011;22140;48.988;8.544;2023-09-30T13:00:22;10.87;;;3.90;;
23565;SDS011;22140;48.988;8.544;2023-09-30T13:05:23;11.90;;;3.60;;
23565;SDS011;22140;48.988;8.544;2023-09-30T13:10:25;10.82;;;4.00;;
23565;SDS011;22140;48.988;8.544;2023-09-30T13:15:26;11.70;;;3.53;;
23565;SDS011;22140;48.988;8.544;2023-09-30T13:20:28;11.60;;;3.97;;
23565;SDS011;22140;48.988;8.544;2023-09-30T13:25:29;12.55;;;3.65;;
23565;SDS011;22140;48.988;8.544;2023-09-30T13:30:31;12.65;;;3.63;;
23565;SDS011;22140;48.988;8.544;2023-09-30T13:35:33;10.20;;;3.97;;
23565;SDS011;22140;48.988;8.544;2023-09-30T13:40:34;12.00;;;3.63;;
23565;SDS011;22140;48.988;8.544;2023-09-30T13:45:37;12.13;;;3.85;;
23565;SDS011;22140;48.988;8.544;2023-09-30T13:50:39;10.70;;;3.80;;
23565;SDS011;22140;48.988;8.544;2023-09-30T13:55:41;11.90;;;3.50;;
23565;SDS011;22140;48.988;8.544;2023-09-30T14:00:48;16.50;;;4.10;;
23565;SDS011;22140;48.988;8.544;2023-09-30T14:05:50;10.87;;;3.83;;
23565;SDS011;22140;48.988;8.544;2023-09-30T14:10:51;11.97;;;3.90;;
23565;SDS011;22140;48.988;8.544;2023-09-30T14:15:53;11.13;;;3.72;;
23565;SDS011;22140;48.988;8.544;2023-09-30T14:20:54;11.23;;;3.80;;
23565;SDS011;22140;48.988;8.544;2023-09-30T14:25:56;11.37;;;3.83;;
23565;SDS011;22140;48.988;8.544;2023-09-30T14:30:57;9.82;;;3.72;;
23565;SDS011;22140;48.988;8.544;2023-09-30T14:35:59;11.75;;;3.65;;
23565;SDS011;22140;48.988;8.544;2023-09-30T14:41:00;14.90;;;3.90;;
23565;SDS011;22140;48.988;8.544;2023-09-30T14:46:02;11.70;;;3.95;;
23565;SDS011;22140;48.988;8.544;2023-09-30T14:51:04;12.80;;;3.90;;
23565;SDS011;22140;48.988;8.544;2023-09-30T14:56:14;15.53;;;4.37;;
23565;SDS011;22140;48.988;8.544;2023-09-30T15:01:15;12.43;;;4.33;;
23565;SDS011;22140;48.988;8.544;2023-09-30T15:06:17;12.80;;;4.30;;
23565;SDS011;22140;48.988;8.544;2023-09-30T15:11:18;13.23;;;4.72;;
23565;SDS011;22140;48.988;8.544;2023-09-30T15:16:20;10.97;;;4.27;;
23565;SDS011;22140;48.988;8.544;2023-09-30T15:21:22;11.65;;;4.25;;
23565;SDS011;22140;48.988;8.544;2023-09-30T15:26:23;10.88;;;4.25;;
23565;SDS011;22140;48.988;8.544;2023-09-30T15:31:28;10.87;;;4.00;;
23565;SDS011;22140;48.988;8.544;2023-09-30T15:36:31;13.23;;;4.63;;
23565;SDS011;22140;48.988;8.544;2023-09-30T15:41:32;11.43;;;4.63;;
23565;SDS011;22140;48.988;8.544;2023-09-30T15:46:34;11.07;;;4.07;;
23565;SDS011;22140;48.988;8.544;2023-09-30T15:51:36;13.13;;;4.63;;
23565;SDS011;22140;48.988;8.544;2023-09-30T15:56:37;11.98;;;4.32;;
23565;SDS011;22140;48.988;8.544;2023-09-30T16:01:56;12.88;;;4.57;;
23565;SDS011;22140;48.988;8.544;2023-09-30T16:06:57;12.07;;;4.10;;
23565;SDS011;22140;48.988;8.544;2023-09-30T16:12:00;12.68;;;4.28;;
23565;SDS011;22140;48.988;8.544;2023-09-30T16:17:01;16.40;;;4.78;;
23565;SDS011;22140;48.988;8.544;2023-09-30T16:22:02;14.07;;;4.27;;
23565;SDS011;22140;48.988;8.544;2023-09-30T16:27:04;12.20;;;3.80;;
23565;SDS011;22140;48.988;8.544;2023-09-30T16:32:05;11.07;;;4.15;;
23565;SDS011;22140;48.988;8.544;2023-09-30T16:37:06;12.90;;;4.50;;
23565;SDS011;22140;48.988;8.544;2023-09-30T16:42:08;11.13;;;4.00;;
23565;SDS011;22140;48.988;8.544;2023-09-30T16:47:09;14.70;;;4.50;;
23565;SDS011;22140;48.988;8.544;2023-09-30T16:52:11;13.48;;;4.18;;
23565;SDS011;22140;48.988;8.544;2023-09-30T16:57:12;13.50;;;4.30;;
23565;SDS011;22140;48.988;8.544;2023-09-30T17:02:13;12.32;;;4.45;;
23565;SDS011;22140;48.988;8.544;2023-09-30T17:07:17;14.45;;;4.82;;
23565;SDS011;22140;48.988;8.544;2023-09-30T17:12:19;16.23;;;4.80;;
23565;SDS011;22140;48.988;8.544;2023-09-30T17:17:20;15.23;;;6.82;;
23565;SDS011;22140;48.988;8.544;2023-09-30T17:22:22;18.73;;;6.93;;
23565;SDS011;22140;48.988;8.544;2023-09-30T17:27:23;11.57;;;4.33;;
23565;SDS011;22140;48.988;8.544;2023-09-30T17:32:24;10.50;;;4.47;;
23565;SDS011;22140;48.988;8.544;2023-09-30T17:37:26;12.68;;;4.65;;
23565;SDS011;22140;48.988;8.544;2023-09-30T17:42:28;16.67;;;5.47;;
23565;SDS011;22140;48.988;8.544;2023-09-30T17:47:29;13.30;;;4.47;;
23565;SDS011;22140;48.988;8.544;2023-09-30T17:52:31;13.02;;;4.15;;
23565;SDS011;22140;48.988;8.544;2023-09-30T17:57:32;13.57;;;4.25;;
23565;SDS011;22140;48.988;8.544;2023-09-30T18:02:34;11.43;;;4.50;;
23565;SDS011;22140;48.988;8.544;2023-09-30T18:07:38;14.98;;;4.03;;
23565;SDS011;22140;48.988;8.544;2023-09-30T18:12:40;12.50;;;4.10;;
23565;SDS011;22140;48.988;8.544;2023-09-30T18:17:41;17.37;;;4.40;;
23565;SDS011;22140;48.988;8.544;2023-09-30T18:22:43;12.17;;;4.67;;
23565;SDS011;22140;48.988;8.544;2023-09-30T18:27:45;15.25;;;4.78;;
23565;SDS011;22140;48.988;8.544;2023-09-30T18:32:47;13.70;;;5.10;;
23565;SDS011;22140;48.988;8.544;2023-09-30T18:37:48;13.67;;;5.13;;
23565;SDS011;22140;48.988;8.544;2023-09-30T18:42:50;14.18;;;5.45;;
23565;SDS011;22140;48.988;8.544;2023-09-30T18:47:53;15.65;;;5.05;;
23565;SDS011;22140;48.988;8.544;2023-09-30T18:52:55;10.83;;;4.87;;
23565;SDS011;22140;48.988;8.544;2023-09-30T18:57:56;16.95;;;5.40;;
23565;SDS011;22140;48.988;8.544;2023-09-30T19:02:58;16.08;;;4.97;;
23565;SDS011;22140;48.988;8.544;2023-09-30T19:08:01;14.53;;;5.17;;
23565;SDS011;22140;48.988;8.544;2023-09-30T19:13:02;17.17;;;4.75;;
23565;SDS011;22140;48.988;8.544;2023-09-30T19:18:04;14.27;;;5.00;;
23565;SDS011;22140;48.988;8.544;2023-09-30T19:23:06;17.87;;;5.87;;
23565;SDS011;22140;48.988;8.544;2023-09-30T19:28:10;11.55;;;4.13;;
23565;SDS011;22140;48.988;8.544;2023-09-30T19:33:11;13.70;;;4.75;;
23565;SDS011;22140;48.988;8.544;2023-09-30T19:38:16;12.73;;;4.33;;
23565;SDS011;22140;48.988;8.544;2023-09-30T19:43:19;11.88;;;4.25;;
23565;SDS011;22140;48.988;8.544;2023-09-30T19:48:20;11.88;;;4.90;;
23565;SDS011;22140;48.988;8.544;2023-09-30T19:53:22;12.27;;;4.70;;
23565;SDS011;22140;48.988;8.544;2023-09-30T19:58:23;12.18;;;4.80;;
23565;SDS011;22140;48.988;8.544;2023-09-30T20:03:24;13.60;;;4.65;;
23565;SDS011;22140;48.988;8.544;2023-09-30T20:08:26;15.07;;;4.47;;
23565;SDS011;22140;48.988;8.544;2023-09-30T20:13:27;14.02;;;4.40;;
23565;SDS011;22140;48.988;8.544;2023-09-30T20:18:29;14.95;;;4.75;;
23565;SDS011;22140;48.988;8.544;2023-09-30T20:23:32;13.13;;;4.80;;
23565;SDS011;22140;48.988;8.544;2023-09-30T20:28:34;16.10;;;5.15;;
23565;SDS011;22140;48.988;8.544;2023-09-30T20:33:36;11.93;;;4.83;;
23565;SDS011;22140;48.988;8.544;2023-09-30T20:38:37;13.13;;;5.00;;
23565;SDS011;22140;48.988;8.544;2023-09-30T20:43:40;11.80;;;4.63;;
23565;SDS011;22140;48.988;8.544;2023-09-30T20:48:42;11.02;;;4.22;;
23565;SDS011;22140;48.988;8.544;2023-09-30T20:53:45;11.10;;;4.73;;
23565;SDS011;22140;48.988;8.544;2023-09-30T20:58:50;12.68;;;4.80;;
23565;SDS011;22140;48.988;8.544;2023-09-30T21:03:51;14.20;;;4.97;;
23565;SDS011;22140;48.988;8.544;2023-09-30T21:08:53;11.43;;;4.57;;
23565;SDS011;22140;48.988;8.544;2023-09-30T21:13:54;15.43;;;4.80;;
23565;SDS011;22140;48.988;8.544;2023-09-30T21:18:56;15.77;;;5.03;;
23565;SDS011;22140;48.988;8.544;2023-09-30T21:23:58;15.07;;;5.20;;
23565;SDS011;22140;48.988;8.544;2023-09-30T21:28:59;15.32;;;5.13;;
23565;SDS011;22140;48.988;8.544;2023-09-30T21:34:01;16.50;;;5.47;;
23565;SDS011;22140;48.988;8.544;2023-09-30T21:39:02;13.95;;;4.78;;
23565;SDS011;22140;48.988;8.544;2023-09-30T21:44:06;15.25;;;5.20;;
23565;SDS011;22140;48.988;8.544;2023-09-30T21:49:07;13.10;;;4.87;;
23565;SDS011;22140;48.988;8.544;2023-09-30T21:54:09;14.02;;;5.57;;
23565;SDS011;22140;48.988;8.544;2023-09-30T21:59:10;11.73;;;4.60;;
23565;SDS011;22140;48.988;8.544;2023-09-30T22:04:12;14.40;;;5.10;;
23565;SDS011;22140;48.988;8.544;2023-09-30T22:09:14;14.90;;;5.22;;
23565;SDS011;22140;48.988;8.544;2023-09-30T22:14:15;14.43;;;5.13;;
23565;SDS011;22140;48.988;8.544;2023-09-30T22:19:16;13.85;;;4.75;;
23565;SDS011;22140;48.988;8.544;2023-09-30T22:24:18;12.48;;;4.70;;
23565;SDS011;22140;48.988;8.544;2023-09-30T22:29:20;16.67;;;5.00;;
23565;SDS011;22140;48.988;8.544;2023-09-30T22:34:21;16.20;;;4.90;;
23565;SDS011;22140;48.988;8.544;2023-09-30T22:39:23;14.43;;;4.67;;
23565;SDS011;22140;48.988;8.544;2023-09-30T22:44:24;16.33;;;4.78;;
23565;SDS011;22140;48.988;8.544;2023-09-30T22:49:26;14.35;;;5.07;;
23565;SDS011;22140;48.988;8.544;2023-09-30T22:54:27;16.50;;;4.90;;
23565;SDS011;22140;48.988;8.544;2023-09-30T22:59:33;13.77;;;4.95;;
23565;SDS011;22140;48.988;8.544;2023-09-30T23:04:34;13.32;;;5.13;;
23565;SDS011;22140;48.988;8.544;2023-09-30T23:09:35;14.87;;;5.00;;
23565;SDS011;22140;48.988;8.544;2023-09-30T23:14:37;13.68;;;5.13;;
23565;SDS011;22140;48.988;8.544;2023-09-30T23:19:39;14.23;;;5.17;;
23565;SDS011;22140;48.988;8.544;2023-09-30T23:24:40;13.15;;;4.90;;
23565;SDS011;22140;48.988;8.544;2023-09-30T23:29:42;13.68;;;5.07;;
23565;SDS011;22140;48.988;8.544;2023-09-30T23:34:43;13.67;;;5.07;;
23565;SDS011;22140;48.988;8.544;2023-09-30T23:39:45;12.15;;;4.60;;
23565;SDS011;22140;48.988;8.544;2023-09-30T23:44:48;12.40;;;4.80;;
23565;SDS011;22140;48.988;8.544;2023-09-30T23:49:49;13.18;;;4.97;;
23565;SDS011;22140;48.988;8.544;2023-09-30T23:54:51;12.57;;;5.22;;
23565;SDS011;22140;48.988;8.544;2023-09-30T23:59:52;14.40;;;4.80;;
